Orchard Park, NY

3:38 PM EDT on June 25, 2017 (GMT -0400)
Hawthorne Dr. | | Change Station
Active Advisory: Beach Hazard Statement

Elev 787 ft 42.78 °N, 78.74 °W | Updated 8 seconds ago

Partly Cloudy
Partly Cloudy
70.3 °F
Feels Like 76 °F
N
8.0
Wind Variable Wind from South
Gusts 19.0 mph

Today
High -- | Low -- °F
--% Chance of Precip.
Yesterday
High -- | Low -- °F
Precip. -- in
Pressure 29.94 in
Visibility 10.0 miles
Clouds Few 4500 ft
Few 10000 ft
Few 15000 ft
Scattered Clouds 25000 ft
Heat Index 76 °F
Dew Point 56 °F
Humidity 61%
Rainfall 0.00 in
Snow Depth Not available.
5:37 AM 8:57 PM
Waxing Crescent, 4% visible
METAR KBUF 251854Z 23020G29KT 10SM FEW045 FEW100 FEW150 SCT250 22/09 A2994 RMK AO2 PK WND 25029/1846 LTG DSNT N AND NW SLP136 CB DSNT N T02170089
Pressure 29.94 in
Visibility 10.0 miles
Clouds Few 4500 ft
Few 10000 ft
Few 15000 ft
Scattered Clouds 25000 ft
Heat Index 76 °F
Dew Point 56 °F
Humidity 61%
Rainfall 0.00 in
Snow Depth Not available.
5:37 AM 8:57 PM
Waxing Crescent, 4% visible
METAR KBUF 251854Z 23020G29KT 10SM FEW045 FEW100 FEW150 SCT250 22/09 A2994 RMK AO2 PK WND 25029/1846 LTG DSNT N AND NW SLP136 CB DSNT N T02170089

Get Your Daily Forecast Email!

Thanks for signing up!

Be on the lookout for a verification email in your inbox.

You'll start receiving severe weather alerts in your inbox..

×

10-Day Weather Forecast

Almanac

Astronomy

Jun. 25, 2017 Rise Set
Actual Time
Civil Twilight
Nautical Twilight
Astronomical Twilight
Moon
Length of Visible Light
Length of Day
Tomorrow will be .
, % of the Moon is Illuminated

Today's Extremes

State Highs State Lows

Community

WunderPhotos

Category 6

Welcome to Category 6. This is the collective home for Weather Underground's featured writeups by Dr. Jeff Masters (right), Bob Henson (left), Chris Burt, and other regular contributors.

Nearby

Air Quality

  Air Quality AQ Index Pollutant
Not available.

Snow Depth

Station Depth Elevation

Earthquake Activity

City Distance Mag. Time & Date
Minimum magnitude displayed is 2.5.

Coastal Water Temperatures

Place Temperature

Stations

Nearby Weather Stations

Station Location Temp. Windchill Dew Point Humidity Wind Precip. Elev Updated Type
                   

Watches & Warnings

Beach Hazard Statement
Issued: 10:42 AM EDT Jun. 25, 2017 – National Weather Service

... Beach hazards statement remains in effect until 10 PM EDT this
evening...

* locations... beaches of Erie and Chautauqua counties.

* Timing... from late this morning through late this evening.

* Impacts... strong currents and dangerous swimming conditions.

Precautionary/preparedness actions...

A beach hazards statement is issued when there is a high swim
risk. This means life threatening waves and currents are
expected. Stay out of the water and stay away from dangerous
areas like piers and breakwalls.